sensor_id;sensor_type;location;lat;lon;timestamp;pressure;altitude;pressure_sealevel;temperature;humidity
43989;BME280;54163;51.386;7.178;2022-07-19T00:02:05;100887.22;;;22.78;53.95
43989;BME280;54163;51.386;7.178;2022-07-19T00:04:33;100882.25;;;22.74;54.79
43989;BME280;54163;51.386;7.178;2022-07-19T00:07:01;100870.25;;;22.67;54.94
43989;BME280;54163;51.386;7.178;2022-07-19T00:09:29;100880.38;;;22.66;54.80
43989;BME280;54163;51.386;7.178;2022-07-19T00:11:57;100874.72;;;22.68;54.30
43989;BME280;54163;51.386;7.178;2022-07-19T00:14:25;100868.41;;;22.67;54.49
43989;BME280;54163;51.386;7.178;2022-07-19T00:16:52;100869.75;;;22.63;54.55
43989;BME280;54163;51.386;7.178;2022-07-19T00:19:19;100864.06;;;22.57;54.64
43989;BME280;54163;51.386;7.178;2022-07-19T00:21:46;100863.19;;;22.48;54.95
43989;BME280;54163;51.386;7.178;2022-07-19T00:24:13;100854.47;;;22.44;55.00
43989;BME280;54163;51.386;7.178;2022-07-19T00:26:41;100853.75;;;22.34;55.05
43989;BME280;54163;51.386;7.178;2022-07-19T00:29:09;100852.22;;;22.32;54.99
43989;BME280;54163;51.386;7.178;2022-07-19T00:31:36;100852.91;;;22.34;55.44
43989;BME280;54163;51.386;7.178;2022-07-19T00:34:03;100845.03;;;22.31;55.56
43989;BME280;54163;51.386;7.178;2022-07-19T00:36:31;100855.09;;;22.30;55.60
43989;BME280;54163;51.386;7.178;2022-07-19T00:38:57;100847.41;;;22.26;55.69
43989;BME280;54163;51.386;7.178;2022-07-19T00:41:24;100848.75;;;22.22;55.66
43989;BME280;54163;51.386;7.178;2022-07-19T00:43:52;100851.63;;;22.12;56.10
43989;BME280;54163;51.386;7.178;2022-07-19T00:46:21;100857.22;;;22.03;56.66
43989;BME280;54163;51.386;7.178;2022-07-19T00:48:49;100847.94;;;21.95;57.42
43989;BME280;54163;51.386;7.178;2022-07-19T00:51:18;100841.75;;;21.85;57.77
43989;BME280;54163;51.386;7.178;2022-07-19T00:53:45;100842.53;;;21.78;57.92
43989;BME280;54163;51.386;7.178;2022-07-19T00:56:13;100835.69;;;21.74;57.74
43989;BME280;54163;51.386;7.178;2022-07-19T00:58:41;100843.69;;;21.93;57.01
43989;BME280;54163;51.386;7.178;2022-07-19T01:01:09;100843.44;;;21.86;57.25
43989;BME280;54163;51.386;7.178;2022-07-19T01:03:39;100848.53;;;21.81;57.40
43989;BME280;54163;51.386;7.178;2022-07-19T01:06:08;100845.41;;;21.68;57.70
43989;BME280;54163;51.386;7.178;2022-07-19T01:08:36;100846.78;;;21.72;57.61
43989;BME280;54163;51.386;7.178;2022-07-19T01:11:05;100854.69;;;21.58;58.50
43989;BME280;54163;51.386;7.178;2022-07-19T01:13:33;100845.59;;;21.49;58.95
43989;BME280;54163;51.386;7.178;2022-07-19T01:16:01;100852.22;;;21.38;58.96
43989;BME280;54163;51.386;7.178;2022-07-19T01:18:28;100844.38;;;21.43;58.70
43989;BME280;54163;51.386;7.178;2022-07-19T01:20:56;100846.44;;;21.41;58.96
43989;BME280;54163;51.386;7.178;2022-07-19T01:23:25;100851.66;;;21.35;59.89
43989;BME280;54163;51.386;7.178;2022-07-19T01:25:52;100846.44;;;21.41;59.35
43989;BME280;54163;51.386;7.178;2022-07-19T01:28:19;100844.47;;;21.34;59.64
43989;BME280;54163;51.386;7.178;2022-07-19T01:30:46;100846.41;;;21.16;60.29
43989;BME280;54163;51.386;7.178;2022-07-19T01:33:13;100851.53;;;21.19;59.94
43989;BME280;54163;51.386;7.178;2022-07-19T01:35:40;100854.09;;;21.20;60.26
43989;BME280;54163;51.386;7.178;2022-07-19T01:38:06;100850.75;;;21.26;59.72
43989;BME280;54163;51.386;7.178;2022-07-19T01:40:35;100843.94;;;21.30;59.38
43989;BME280;54163;51.386;7.178;2022-07-19T01:43:02;100846.53;;;21.32;59.52
43989;BME280;54163;51.386;7.178;2022-07-19T01:45:29;100853.03;;;21.13;60.14
43989;BME280;54163;51.386;7.178;2022-07-19T01:47:56;100843.88;;;20.87;61.00
43989;BME280;54163;51.386;7.178;2022-07-19T01:50:23;100846.06;;;20.83;61.62
43989;BME280;54163;51.386;7.178;2022-07-19T01:52:51;100846.78;;;20.85;61.42
43989;BME280;54163;51.386;7.178;2022-07-19T01:55:19;100850.47;;;20.76;62.25
43989;BME280;54163;51.386;7.178;2022-07-19T01:57:48;100838.81;;;20.74;62.13
43989;BME280;54163;51.386;7.178;2022-07-19T02:00:15;100851.47;;;20.75;62.12
43989;BME280;54163;51.386;7.178;2022-07-19T02:02:42;100837.44;;;20.70;62.15
43989;BME280;54163;51.386;7.178;2022-07-19T02:05:09;100838.91;;;20.65;62.04
43989;BME280;54163;51.386;7.178;2022-07-19T02:07:37;100838.69;;;20.76;61.86
43989;BME280;54163;51.386;7.178;2022-07-19T02:10:05;100840.38;;;20.77;61.43
43989;BME280;54163;51.386;7.178;2022-07-19T02:12:32;100833.38;;;20.74;61.62
43989;BME280;54163;51.386;7.178;2022-07-19T02:15:01;100836.50;;;20.79;61.39
43989;BME280;54163;51.386;7.178;2022-07-19T02:17:29;100828.66;;;20.76;61.38
43989;BME280;54163;51.386;7.178;2022-07-19T02:19:56;100837.13;;;20.73;61.90
43989;BME280;54163;51.386;7.178;2022-07-19T02:22:23;100835.72;;;20.69;62.26
43989;BME280;54163;51.386;7.178;2022-07-19T02:24:51;100843.22;;;20.67;62.03
43989;BME280;54163;51.386;7.178;2022-07-19T02:27:17;100829.28;;;20.70;61.88
43989;BME280;54163;51.386;7.178;2022-07-19T02:29:45;100821.09;;;20.70;61.82
43989;BME280;54163;51.386;7.178;2022-07-19T02:32:13;100822.78;;;20.71;61.51
43989;BME280;54163;51.386;7.178;2022-07-19T02:34:40;100822.22;;;20.68;61.69
43989;BME280;54163;51.386;7.178;2022-07-19T02:37:08;100833.63;;;20.63;61.68
43989;BME280;54163;51.386;7.178;2022-07-19T02:39:35;100821.16;;;20.61;61.88
43989;BME280;54163;51.386;7.178;2022-07-19T02:42:02;100815.16;;;20.57;62.23
43989;BME280;54163;51.386;7.178;2022-07-19T02:44:29;100825.91;;;20.59;62.25
43989;BME280;54163;51.386;7.178;2022-07-19T02:46:56;100821.63;;;20.56;61.99
43989;BME280;54163;51.386;7.178;2022-07-19T02:49:25;100832.50;;;20.74;61.11
43989;BME280;54163;51.386;7.178;2022-07-19T02:51:51;100825.28;;;20.82;60.79
43989;BME280;54163;51.386;7.178;2022-07-19T02:54:18;100818.06;;;20.73;61.16
43989;BME280;54163;51.386;7.178;2022-07-19T02:56:46;100828.72;;;20.84;60.97
43989;BME280;54163;51.386;7.178;2022-07-19T02:59:13;100819.19;;;20.71;61.26
43989;BME280;54163;51.386;7.178;2022-07-19T03:01:39;100818.13;;;20.81;61.01
43989;BME280;54163;51.386;7.178;2022-07-19T03:04:07;100813.59;;;20.72;61.34
43989;BME280;54163;51.386;7.178;2022-07-19T03:06:35;100816.78;;;20.68;61.39
43989;BME280;54163;51.386;7.178;2022-07-19T03:09:02;100824.59;;;20.63;62.07
43989;BME280;54163;51.386;7.178;2022-07-19T03:11:29;100814.53;;;20.63;61.88
43989;BME280;54163;51.386;7.178;2022-07-19T03:13:56;100817.25;;;20.63;62.09
43989;BME280;54163;51.386;7.178;2022-07-19T03:16:23;100814.91;;;20.68;61.81
43989;BME280;54163;51.386;7.178;2022-07-19T03:18:50;100814.91;;;20.68;61.93
43989;BME280;54163;51.386;7.178;2022-07-19T03:21:17;100810.56;;;20.75;61.77
43989;BME280;54163;51.386;7.178;2022-07-19T03:23:46;100811.75;;;20.73;61.71
43989;BME280;54163;51.386;7.178;2022-07-19T03:26:13;100808.91;;;20.47;62.40
43989;BME280;54163;51.386;7.178;2022-07-19T03:28:40;100812.56;;;20.56;62.22
43989;BME280;54163;51.386;7.178;2022-07-19T03:31:06;100815.53;;;20.62;61.92
43989;BME280;54163;51.386;7.178;2022-07-19T03:33:33;100815.78;;;20.51;62.67
43989;BME280;54163;51.386;7.178;2022-07-19T03:36:00;100812.09;;;20.43;62.76
43989;BME280;54163;51.386;7.178;2022-07-19T03:38:28;100806.31;;;20.28;63.60
43989;BME280;54163;51.386;7.178;2022-07-19T03:40:56;100808.38;;;20.26;63.58
43989;BME280;54163;51.386;7.178;2022-07-19T03:43:23;100817.66;;;20.23;63.62
43989;BME280;54163;51.386;7.178;2022-07-19T03:45:50;100810.91;;;20.27;63.30
43989;BME280;54163;51.386;7.178;2022-07-19T03:48:16;100825.41;;;20.28;63.63
43989;BME280;54163;51.386;7.178;2022-07-19T03:50:44;100821.66;;;20.29;64.15
43989;BME280;54163;51.386;7.178;2022-07-19T03:53:12;100817.22;;;20.28;64.37
43989;BME280;54163;51.386;7.178;2022-07-19T03:55:39;100820.94;;;20.27;64.22
43989;BME280;54163;51.386;7.178;2022-07-19T03:58:07;100817.50;;;20.25;63.98
43989;BME280;54163;51.386;7.178;2022-07-19T04:00:35;100821.09;;;20.25;64.15
43989;BME280;54163;51.386;7.178;2022-07-19T04:03:03;100820.38;;;20.33;63.82
43989;BME280;54163;51.386;7.178;2022-07-19T04:05:30;100821.38;;;20.32;63.83
43989;BME280;54163;51.386;7.178;2022-07-19T04:07:57;100816.47;;;20.35;63.59
43989;BME280;54163;51.386;7.178;2022-07-19T04:10:24;100817.91;;;20.30;63.84
43989;BME280;54163;51.386;7.178;2022-07-19T04:12:51;100820.38;;;20.33;63.93
43989;BME280;54163;51.386;7.178;2022-07-19T04:15:20;100821.63;;;20.38;63.68
43989;BME280;54163;51.386;7.178;2022-07-19T04:17:47;100812.09;;;20.43;63.53
43989;BME280;54163;51.386;7.178;2022-07-19T04:20:13;100812.81;;;20.45;63.51
43989;BME280;54163;51.386;7.178;2022-07-19T04:22:41;100819.19;;;20.53;63.39
43989;BME280;54163;51.386;7.178;2022-07-19T04:25:08;100812.38;;;20.67;62.98
43989;BME280;54163;51.386;7.178;2022-07-19T04:27:35;100823.81;;;20.70;62.64
43989;BME280;54163;51.386;7.178;2022-07-19T04:30:04;100820.28;;;20.78;62.62
43989;BME280;54163;51.386;7.178;2022-07-19T04:32:33;100819.44;;;20.77;62.90
43989;BME280;54163;51.386;7.178;2022-07-19T04:35:00;100827.91;;;20.74;63.13
43989;BME280;54163;51.386;7.178;2022-07-19T04:37:26;100816.47;;;20.71;63.51
43989;BME280;54163;51.386;7.178;2022-07-19T04:39:54;100827.84;;;20.66;63.99
43989;BME280;54163;51.386;7.178;2022-07-19T04:42:21;100818.25;;;20.80;63.40
43989;BME280;54163;51.386;7.178;2022-07-19T04:44:48;100823.81;;;20.88;63.03
43989;BME280;54163;51.386;7.178;2022-07-19T04:47:15;100820.66;;;21.01;62.56
43989;BME280;54163;51.386;7.178;2022-07-19T04:49:44;100821.75;;;21.08;62.38
43989;BME280;54163;51.386;7.178;2022-07-19T04:52:11;100820.34;;;21.04;62.28
43989;BME280;54163;51.386;7.178;2022-07-19T04:54:38;100826.94;;;21.11;62.14
43989;BME280;54163;51.386;7.178;2022-07-19T04:57:05;100823.25;;;21.20;61.87
43989;BME280;54163;51.386;7.178;2022-07-19T04:59:32;100825.13;;;21.19;61.98
43989;BME280;54163;51.386;7.178;2022-07-19T05:01:59;100827.66;;;21.21;61.87
43989;BME280;54163;51.386;7.178;2022-07-19T05:04:26;100826.19;;;21.26;61.64
43989;BME280;54163;51.386;7.178;2022-07-19T05:06:54;100823.28;;;21.28;61.83
43989;BME280;54163;51.386;7.178;2022-07-19T05:09:23;100811.53;;;21.27;61.54
43989;BME280;54163;51.386;7.178;2022-07-19T05:11:50;100814.81;;;21.39;61.20
43989;BME280;54163;51.386;7.178;2022-07-19T05:14:18;100806.84;;;21.45;60.96
43989;BME280;54163;51.386;7.178;2022-07-19T05:16:46;100810.97;;;21.50;61.11
43989;BME280;54163;51.386;7.178;2022-07-19T05:19:14;100810.53;;;21.54;61.09
43989;BME280;54163;51.386;7.178;2022-07-19T05:21:41;100807.72;;;21.46;61.16
43989;BME280;54163;51.386;7.178;2022-07-19T05:24:10;100817.41;;;21.40;61.68
43989;BME280;54163;51.386;7.178;2022-07-19T05:26:37;100818.63;;;21.46;61.79
43989;BME280;54163;51.386;7.178;2022-07-19T05:29:03;100815.47;;;21.59;61.33
43989;BME280;54163;51.386;7.178;2022-07-19T05:31:30;100808.50;;;21.64;60.81
43989;BME280;54163;51.386;7.178;2022-07-19T05:33:57;100810.09;;;21.75;60.11
43989;BME280;54163;51.386;7.178;2022-07-19T05:36:25;100809.13;;;21.84;60.18
43989;BME280;54163;51.386;7.178;2022-07-19T05:38:52;100803.09;;;21.98;59.97
43989;BME280;54163;51.386;7.178;2022-07-19T05:41:20;100802.78;;;22.17;59.64
43989;BME280;54163;51.386;7.178;2022-07-19T05:43:48;100809.97;;;22.10;59.53
43989;BME280;54163;51.386;7.178;2022-07-19T05:46:15;100802.59;;;21.77;61.18
43989;BME280;54163;51.386;7.178;2022-07-19T05:48:43;100811.66;;;22.11;60.10
43989;BME280;54163;51.386;7.178;2022-07-19T05:51:09;100819.94;;;22.35;59.32
43989;BME280;54163;51.386;7.178;2022-07-19T05:53:37;100808.16;;;22.43;59.10
43989;BME280;54163;51.386;7.178;2022-07-19T05:56:04;100805.94;;;22.55;58.66
43989;BME280;54163;51.386;7.178;2022-07-19T05:58:33;100801.75;;;22.76;58.01
43989;BME280;54163;51.386;7.178;2022-07-19T06:00:59;100796.78;;;22.96;57.16
43989;BME280;54163;51.386;7.178;2022-07-19T06:03:45;100794.91;;;22.88;57.25
43989;BME280;54163;51.386;7.178;2022-07-19T06:06:13;100795.94;;;22.87;57.62
43989;BME280;54163;51.386;7.178;2022-07-19T06:08:41;100798.84;;;22.94;57.40
43989;BME280;54163;51.386;7.178;2022-07-19T06:11:08;100814.22;;;23.11;56.97
43989;BME280;54163;51.386;7.178;2022-07-19T06:13:37;100806.84;;;23.36;56.06
43989;BME280;54163;51.386;7.178;2022-07-19T06:16:05;100809.59;;;23.52;55.47
43989;BME280;54163;51.386;7.178;2022-07-19T06:18:32;100809.59;;;23.52;55.54
43989;BME280;54163;51.386;7.178;2022-07-19T06:21:01;100816.41;;;23.72;54.80
43989;BME280;54163;51.386;7.178;2022-07-19T06:23:28;100815.13;;;23.83;54.67
43989;BME280;54163;51.386;7.178;2022-07-19T06:25:55;100816.25;;;24.04;54.20
43989;BME280;54163;51.386;7.178;2022-07-19T06:28:22;100807.94;;;24.29;53.38
43989;BME280;54163;51.386;7.178;2022-07-19T06:30:50;100799.81;;;24.43;52.87
43989;BME280;54163;51.386;7.178;2022-07-19T06:33:17;100819.56;;;24.61;52.52
43989;BME280;54163;51.386;7.178;2022-07-19T06:35:44;100815.53;;;24.72;52.14
43989;BME280;54163;51.386;7.178;2022-07-19T06:38:11;100812.19;;;24.93;51.30
43989;BME280;54163;51.386;7.178;2022-07-19T06:40:38;100817.53;;;25.09;50.98
43989;BME280;54163;51.386;7.178;2022-07-19T06:43:05;100811.69;;;25.12;50.75
43989;BME280;54163;51.386;7.178;2022-07-19T06:45:32;100816.22;;;25.20;50.86
43989;BME280;54163;51.386;7.178;2022-07-19T06:48:00;100815.69;;;25.24;50.96
43989;BME280;54163;51.386;7.178;2022-07-19T06:50:27;100807.56;;;25.45;50.26
43989;BME280;54163;51.386;7.178;2022-07-19T06:52:54;100815.75;;;25.53;50.54
43989;BME280;54163;51.386;7.178;2022-07-19T06:55:21;100814.97;;;25.59;50.44
43989;BME280;54163;51.386;7.178;2022-07-19T06:57:48;100812.66;;;25.71;50.59
43989;BME280;54163;51.386;7.178;2022-07-19T07:00:15;100818.78;;;25.88;50.44
43989;BME280;54163;51.386;7.178;2022-07-19T07:02:42;100823.31;;;26.10;49.97
43989;BME280;54163;51.386;7.178;2022-07-19T07:05:12;100817.94;;;26.16;49.74
43989;BME280;54163;51.386;7.178;2022-07-19T07:07:39;100817.84;;;26.25;49.54
43989;BME280;54163;51.386;7.178;2022-07-19T07:10:09;100810.34;;;26.33;49.56
43989;BME280;54163;51.386;7.178;2022-07-19T07:12:36;100813.03;;;26.48;49.36
43989;BME280;54163;51.386;7.178;2022-07-19T07:15:04;100816.19;;;26.66;48.88
43989;BME280;54163;51.386;7.178;2022-07-19T07:17:31;100807.44;;;26.77;48.36
43989;BME280;54163;51.386;7.178;2022-07-19T07:19:58;100811.34;;;26.83;47.15
43989;BME280;54163;51.386;7.178;2022-07-19T07:22:27;100812.69;;;26.93;43.99
43989;BME280;54163;51.386;7.178;2022-07-19T07:24:54;100821.44;;;27.18;41.46
43989;BME280;54163;51.386;7.178;2022-07-19T07:27:21;100810.75;;;27.36;41.20
43989;BME280;54163;51.386;7.178;2022-07-19T07:29:48;100815.84;;;27.60;41.09
43989;BME280;54163;51.386;7.178;2022-07-19T07:32:15;100813.00;;;27.82;40.49
43989;BME280;54163;51.386;7.178;2022-07-19T07:34:42;100821.53;;;27.93;39.75
43989;BME280;54163;51.386;7.178;2022-07-19T07:37:09;100813.84;;;28.16;38.28
43989;BME280;54163;51.386;7.178;2022-07-19T07:39:37;100820.91;;;28.25;37.70
43989;BME280;54163;51.386;7.178;2022-07-19T07:42:04;100823.31;;;28.42;36.58
43989;BME280;54163;51.386;7.178;2022-07-19T07:44:31;100813.16;;;28.49;36.02
43989;BME280;54163;51.386;7.178;2022-07-19T07:46:58;100819.16;;;28.72;35.24
43989;BME280;54163;51.386;7.178;2022-07-19T07:49:25;100816.22;;;28.93;34.89
43989;BME280;54163;51.386;7.178;2022-07-19T07:51:52;100817.53;;;29.10;34.61
43989;BME280;54163;51.386;7.178;2022-07-19T07:54:20;100825.66;;;29.25;34.31
43989;BME280;54163;51.386;7.178;2022-07-19T07:56:48;100820.75;;;29.33;34.49
43989;BME280;54163;51.386;7.178;2022-07-19T07:59:16;100822.22;;;29.56;33.36
43989;BME280;54163;51.386;7.178;2022-07-19T08:01:42;100824.13;;;29.75;33.53
43989;BME280;54163;51.386;7.178;2022-07-19T08:04:10;100815.84;;;29.55;33.63
43989;BME280;54163;51.386;7.178;2022-07-19T08:06:37;100813.94;;;29.56;33.07
43989;BME280;54163;51.386;7.178;2022-07-19T08:09:04;100811.34;;;29.74;32.77
43989;BME280;54163;51.386;7.178;2022-07-19T08:11:31;100811.78;;;29.84;33.30
43989;BME280;54163;51.386;7.178;2022-07-19T08:14:00;100807.94;;;29.98;32.65
43989;BME280;54163;51.386;7.178;2022-07-19T08:16:27;100813.22;;;30.00;32.67
43989;BME280;54163;51.386;7.178;2022-07-19T08:18:54;100812.94;;;30.14;32.33
43989;BME280;54163;51.386;7.178;2022-07-19T08:21:20;100806.75;;;30.25;32.08
43989;BME280;54163;51.386;7.178;2022-07-19T08:23:47;100814.19;;;30.31;32.14
43989;BME280;54163;51.386;7.178;2022-07-19T08:26:14;100808.22;;;30.28;32.10
43989;BME280;54163;51.386;7.178;2022-07-19T08:28:41;100808.47;;;30.20;32.21
43989;BME280;54163;51.386;7.178;2022-07-19T08:31:09;100806.50;;;30.27;32.12
43989;BME280;54163;51.386;7.178;2022-07-19T08:33:37;100805.84;;;30.38;31.90
43989;BME280;54163;51.386;7.178;2022-07-19T08:36:06;100807.94;;;30.49;31.87
43989;BME280;54163;51.386;7.178;2022-07-19T08:38:33;100800.44;;;30.56;31.05
43989;BME280;54163;51.386;7.178;2022-07-19T08:41:01;100799.94;;;30.72;30.93
43989;BME280;54163;51.386;7.178;2022-07-19T08:43:28;100799.78;;;30.92;30.79
43989;BME280;54163;51.386;7.178;2022-07-19T08:45:59;100798.28;;;30.96;30.53
43989;BME280;54163;51.386;7.178;2022-07-19T08:48:30;100803.88;;;30.83;31.21
43989;BME280;54163;51.386;7.178;2022-07-19T08:50:58;100795.38;;;30.84;30.68
43989;BME280;54163;51.386;7.178;2022-07-19T08:53:29;100790.59;;;30.98;30.92
43989;BME280;54163;51.386;7.178;2022-07-19T08:55:57;100786.25;;;31.09;30.44
43989;BME280;54163;51.386;7.178;2022-07-19T08:58:24;100790.34;;;31.31;29.87
43989;BME280;54163;51.386;7.178;2022-07-19T09:00:51;100794.97;;;31.37;29.58
43989;BME280;54163;51.386;7.178;2022-07-19T09:03:18;100795.13;;;31.67;29.26
43989;BME280;54163;51.386;7.178;2022-07-19T09:05:47;100792.28;;;31.73;28.93
43989;BME280;54163;51.386;7.178;2022-07-19T09:08:17;100786.50;;;31.93;28.80
43989;BME280;54163;51.386;7.178;2022-07-19T09:10:46;100789.69;;;31.96;28.75
43989;BME280;54163;51.386;7.178;2022-07-19T09:13:34;100788.31;;;32.06;28.26
43989;BME280;54163;51.386;7.178;2022-07-19T09:16:01;100788.47;;;32.11;28.24
43989;BME280;54163;51.386;7.178;2022-07-19T09:18:30;100791.63;;;32.14;28.37
43989;BME280;54163;51.386;7.178;2022-07-19T09:21:00;100790.31;;;32.35;28.21
43989;BME280;54163;51.386;7.178;2022-07-19T09:23:28;100796.06;;;32.33;27.51
43989;BME280;54163;51.386;7.178;2022-07-19T09:25:57;100791.75;;;32.37;27.36
43989;BME280;54163;51.386;7.178;2022-07-19T09:28:26;100788.91;;;32.44;27.43
43989;BME280;54163;51.386;7.178;2022-07-19T09:30:56;100792.97;;;32.41;27.45
43989;BME280;54163;51.386;7.178;2022-07-19T09:33:26;100794.66;;;32.42;26.88
43989;BME280;54163;51.386;7.178;2022-07-19T09:35:54;100782.84;;;32.65;26.90
43989;BME280;54163;51.386;7.178;2022-07-19T09:38:25;100786.47;;;32.66;26.66
43989;BME280;54163;51.386;7.178;2022-07-19T09:40:54;100787.56;;;32.76;26.98
43989;BME280;54163;51.386;7.178;2022-07-19T09:43:49;100777.56;;;32.75;27.18
43989;BME280;54163;51.386;7.178;2022-07-19T09:46:30;100781.53;;;32.68;27.13
43989;BME280;54163;51.386;7.178;2022-07-19T09:49:06;100775.69;;;32.58;28.03
43989;BME280;54163;51.386;7.178;2022-07-19T09:51:35;100778.34;;;32.64;27.61
43989;BME280;54163;51.386;7.178;2022-07-19T09:54:04;100775.00;;;32.74;28.16
43989;BME280;54163;51.386;7.178;2022-07-19T09:56:32;100775.34;;;32.66;27.74
43989;BME280;54163;51.386;7.178;2022-07-19T09:58:59;100771.88;;;32.52;30.63
43989;BME280;54163;51.386;7.178;2022-07-19T10:01:28;100771.50;;;32.48;28.67
43989;BME280;54163;51.386;7.178;2022-07-19T10:04:01;100773.34;;;32.55;27.91
43989;BME280;54163;51.386;7.178;2022-07-19T10:06:29;100774.03;;;32.68;27.97
43989;BME280;54163;51.386;7.178;2022-07-19T10:08:56;100772.50;;;32.84;28.09
43989;BME280;54163;51.386;7.178;2022-07-19T10:11:26;100763.91;;;32.85;27.08
43989;BME280;54163;51.386;7.178;2022-07-19T10:13:53;100762.16;;;33.03;27.37
43989;BME280;54163;51.386;7.178;2022-07-19T10:16:26;100764.31;;;33.00;27.24
43989;BME280;54163;51.386;7.178;2022-07-19T10:19:03;100756.81;;;33.01;26.89
43989;BME280;54163;51.386;7.178;2022-07-19T10:21:31;100758.34;;;33.15;26.31
43989;BME280;54163;51.386;7.178;2022-07-19T10:23:58;100755.66;;;33.32;26.11
43989;BME280;54163;51.386;7.178;2022-07-19T10:26:37;100750.22;;;33.48;26.12
43989;BME280;54163;51.386;7.178;2022-07-19T10:29:08;100759.22;;;33.62;24.83
43989;BME280;54163;51.386;7.178;2022-07-19T10:31:36;100739.59;;;33.80;25.27
43989;BME280;54163;51.386;7.178;2022-07-19T10:34:05;100742.34;;;33.92;25.18
43989;BME280;54163;51.386;7.178;2022-07-19T10:36:39;100740.78;;;33.84;24.88
43989;BME280;54163;51.386;7.178;2022-07-19T10:39:26;100738.38;;;33.76;24.75
43989;BME280;54163;51.386;7.178;2022-07-19T10:42:13;100730.59;;;33.90;23.78
43989;BME280;54163;51.386;7.178;2022-07-19T10:48:03;100735.03;;;34.42;26.47
43989;BME280;54163;51.386;7.178;2022-07-19T10:50:46;100729.31;;;34.21;27.43
43989;BME280;54163;51.386;7.178;2022-07-19T10:56:31;100736.88;;;33.97;24.17
43989;BME280;54163;51.386;7.178;2022-07-19T10:59:03;100728.38;;;34.15;25.02
43989;BME280;54163;51.386;7.178;2022-07-19T11:01:32;100728.56;;;34.25;25.31
43989;BME280;54163;51.386;7.178;2022-07-19T11:04:30;100734.84;;;34.32;23.67
43989;BME280;54163;51.386;7.178;2022-07-19T11:07:15;100723.75;;;34.49;23.78
43989;BME280;54163;51.386;7.178;2022-07-19T11:09:46;100720.19;;;34.65;22.34
43989;BME280;54163;51.386;7.178;2022-07-19T11:12:21;100708.13;;;34.93;22.78
43989;BME280;54163;51.386;7.178;2022-07-19T11:14:49;100720.44;;;34.97;21.83
43989;BME280;54163;51.386;7.178;2022-07-19T11:17:17;100714.22;;;35.23;24.32
43989;BME280;54163;51.386;7.178;2022-07-19T11:19:56;100708.63;;;35.23;24.03
43989;BME280;54163;51.386;7.178;2022-07-19T11:22:23;100695.25;;;35.25;24.37
43989;BME280;54163;51.386;7.178;2022-07-19T11:24:50;100705.56;;;35.25;23.48
43989;BME280;54163;51.386;7.178;2022-07-19T11:27:17;100698.41;;;35.50;23.01
43989;BME280;54163;51.386;7.178;2022-07-19T11:29:56;100693.69;;;35.68;24.44
43989;BME280;54163;51.386;7.178;2022-07-19T11:32:24;100688.09;;;35.68;24.64
43989;BME280;54163;51.386;7.178;2022-07-19T11:34:55;100692.50;;;35.64;22.40
43989;BME280;54163;51.386;7.178;2022-07-19T11:37:23;100695.38;;;35.52;22.65
43989;BME280;54163;51.386;7.178;2022-07-19T11:39:50;100685.94;;;35.75;23.31
43989;BME280;54163;51.386;7.178;2022-07-19T11:42:30;100685.75;;;35.81;24.13
43989;BME280;54163;51.386;7.178;2022-07-19T11:44:59;100681.09;;;35.65;24.16
43989;BME280;54163;51.386;7.178;2022-07-19T11:47:33;100673.00;;;35.69;22.20
43989;BME280;54163;51.386;7.178;2022-07-19T11:50:03;100681.31;;;35.85;22.13
43989;BME280;54163;51.386;7.178;2022-07-19T11:52:41;100679.41;;;36.07;23.03
43989;BME280;54163;51.386;7.178;2022-07-19T11:55:08;100678.66;;;36.17;23.30
43989;BME280;54163;51.386;7.178;2022-07-19T11:57:35;100672.56;;;36.20;22.39
43989;BME280;54163;51.386;7.178;2022-07-19T12:00:06;100673.66;;;36.19;23.04
43989;BME280;54163;51.386;7.178;2022-07-19T12:02:56;100673.22;;;36.32;23.35
43989;BME280;54163;51.386;7.178;2022-07-19T12:05:25;100675.53;;;36.40;23.10
43989;BME280;54163;51.386;7.178;2022-07-19T12:07:53;100671.00;;;36.34;21.72
43989;BME280;54163;51.386;7.178;2022-07-19T12:10:35;100656.56;;;36.42;22.46
43989;BME280;54163;51.386;7.178;2022-07-19T12:13:03;100665.22;;;36.14;21.42
43989;BME280;54163;51.386;7.178;2022-07-19T12:15:47;100653.09;;;36.30;21.73
43989;BME280;54163;51.386;7.178;2022-07-19T12:18:15;100649.59;;;36.45;23.06
43989;BME280;54163;51.386;7.178;2022-07-19T12:20:43;100650.44;;;36.45;23.04
43989;BME280;54163;51.386;7.178;2022-07-19T12:23:12;100643.31;;;36.59;23.52
43989;BME280;54163;51.386;7.178;2022-07-19T12:25:40;100639.56;;;36.76;23.15
43989;BME280;54163;51.386;7.178;2022-07-19T12:28:07;100646.88;;;36.82;22.80
43989;BME280;54163;51.386;7.178;2022-07-19T12:30:34;100642.13;;;37.19;23.51
43989;BME280;54163;51.386;7.178;2022-07-19T12:33:09;100635.91;;;37.59;21.96
43989;BME280;54163;51.386;7.178;2022-07-19T12:35:41;100629.09;;;38.02;21.31
43989;BME280;54163;51.386;7.178;2022-07-19T12:38:08;100638.19;;;38.44;22.30
43989;BME280;54163;51.386;7.178;2022-07-19T12:40:38;100632.56;;;38.69;21.28
43989;BME280;54163;51.386;7.178;2022-07-19T12:43:06;100633.69;;;38.84;21.12
43989;BME280;54163;51.386;7.178;2022-07-19T12:45:36;100629.75;;;39.10;21.13
43989;BME280;54163;51.386;7.178;2022-07-19T12:48:06;100623.53;;;39.33;21.16
43989;BME280;54163;51.386;7.178;2022-07-19T12:50:35;100623.47;;;39.48;20.88
43989;BME280;54163;51.386;7.178;2022-07-19T12:53:04;100613.56;;;39.66;20.46
43989;BME280;54163;51.386;7.178;2022-07-19T12:55:32;100608.72;;;39.87;21.54
43989;BME280;54163;51.386;7.178;2022-07-19T12:58:01;100610.69;;;39.86;18.48
43989;BME280;54163;51.386;7.178;2022-07-19T13:00:30;100610.75;;;40.20;19.97
43989;BME280;54163;51.386;7.178;2022-07-19T13:02:58;100607.22;;;39.99;19.02
43989;BME280;54163;51.386;7.178;2022-07-19T13:05:27;100612.97;;;40.28;19.89